sensor_id;sensor_type;location;lat;lon;timestamp;pressure;altitude;pressure_sealevel;temperature;humidity
3160;BME280;1591;51.486;7.146;2022-08-19T00:00:40;72655.06;;;20.35;100.00
3160;BME280;1591;51.486;7.146;2022-08-19T00:03:07;72661.63;;;20.34;100.00
3160;BME280;1591;51.486;7.146;2022-08-19T00:05:35;72662.81;;;20.35;100.00
3160;BME280;1591;51.486;7.146;2022-08-19T00:08:03;72665.13;;;20.37;100.00
3160;BME280;1591;51.486;7.146;2022-08-19T00:10:30;72664.53;;;20.36;100.00
3160;BME280;1591;51.486;7.146;2022-08-19T00:12:57;72659.44;;;20.34;100.00
3160;BME280;1591;51.486;7.146;2022-08-19T00:15:26;72660.47;;;20.33;100.00
3160;BME280;1591;51.486;7.146;2022-08-19T00:17:54;72659.91;;;20.32;100.00
3160;BME280;1591;51.486;7.146;2022-08-19T00:20:22;72653.66;;;20.29;100.00
3160;BME280;1591;51.486;7.146;2022-08-19T00:22:49;72656.88;;;20.27;100.00
3160;BME280;1591;51.486;7.146;2022-08-19T00:25:17;72650.59;;;20.24;100.00
3160;BME280;1591;51.486;7.146;2022-08-19T00:27:45;72647.69;;;20.22;100.00
3160;BME280;1591;51.486;7.146;2022-08-19T00:30:13;72640.81;;;20.18;100.00
3160;BME280;1591;51.486;7.146;2022-08-19T00:32:42;72636.75;;;20.15;100.00
3160;BME280;1591;51.486;7.146;2022-08-19T00:35:10;72641.00;;;20.11;100.00
3160;BME280;1591;51.486;7.146;2022-08-19T00:37:38;72631.97;;;20.08;100.00
3160;BME280;1591;51.486;7.146;2022-08-19T00:40:11;72625.69;;;20.05;100.00
3160;BME280;1591;51.486;7.146;2022-08-19T00:42:39;72628.34;;;20.03;100.00
3160;BME280;1591;51.486;7.146;2022-08-19T00:45:12;72626.59;;;20.01;100.00
3160;BME280;1591;51.486;7.146;2022-08-19T00:47:41;72631.00;;;20.00;100.00
3160;BME280;1591;51.486;7.146;2022-08-19T00:50:09;72631.44;;;19.98;100.00
3160;BME280;1591;51.486;7.146;2022-08-19T00:52:41;72621.22;;;19.94;100.00
3160;BME280;1591;51.486;7.146;2022-08-19T00:55:16;72615.13;;;19.94;100.00
3160;BME280;1591;51.486;7.146;2022-08-19T00:57:51;72612.34;;;19.94;100.00
3160;BME280;1591;51.486;7.146;2022-08-19T01:00:21;72614.38;;;19.91;100.00
3160;BME280;1591;51.486;7.146;2022-08-19T01:02:50;72613.69;;;19.88;100.00
3160;BME280;1591;51.486;7.146;2022-08-19T01:05:25;72611.34;;;19.86;100.00
3160;BME280;1591;51.486;7.146;2022-08-19T01:07:55;72611.78;;;19.83;100.00
3160;BME280;1591;51.486;7.146;2022-08-19T01:10:25;72597.81;;;19.81;100.00
3160;BME280;1591;51.486;7.146;2022-08-19T01:12:55;72600.44;;;19.78;100.00
3160;BME280;1591;51.486;7.146;2022-08-19T01:15:29;72597.53;;;19.76;100.00
3160;BME280;1591;51.486;7.146;2022-08-19T01:18:01;72589.06;;;19.73;100.00
3160;BME280;1591;51.486;7.146;2022-08-19T01:20:31;72593.03;;;19.74;100.00
3160;BME280;1591;51.486;7.146;2022-08-19T01:23:02;72592.44;;;19.74;100.00
3160;BME280;1591;51.486;7.146;2022-08-19T01:25:41;72589.53;;;19.71;100.00
3160;BME280;1591;51.486;7.146;2022-08-19T01:28:16;72601.63;;;19.70;100.00
3160;BME280;1591;51.486;7.146;2022-08-19T01:30:45;72591.00;;;19.68;100.00
3160;BME280;1591;51.486;7.146;2022-08-19T01:33:12;72586.50;;;19.66;100.00
3160;BME280;1591;51.486;7.146;2022-08-19T01:35:41;72580.81;;;19.64;100.00
3160;BME280;1591;51.486;7.146;2022-08-19T01:38:21;72582.41;;;19.63;100.00
3160;BME280;1591;51.486;7.146;2022-08-19T01:40:48;72575.59;;;19.59;100.00
3160;BME280;1591;51.486;7.146;2022-08-19T01:43:15;72569.91;;;19.57;100.00
3160;BME280;1591;51.486;7.146;2022-08-19T01:45:45;72575.88;;;19.55;100.00
3160;BME280;1591;51.486;7.146;2022-08-19T01:48:14;72571.97;;;19.54;100.00
3160;BME280;1591;51.486;7.146;2022-08-19T01:50:41;72606.22;;;19.52;100.00
3160;BME280;1591;51.486;7.146;2022-08-19T01:53:11;72570.22;;;19.52;100.00
3160;BME280;1591;51.486;7.146;2022-08-19T01:55:41;72575.44;;;19.57;100.00
3160;BME280;1591;51.486;7.146;2022-08-19T01:58:15;72574.28;;;19.56;100.00
3160;BME280;1591;51.486;7.146;2022-08-19T02:00:44;72573.13;;;19.55;100.00
3160;BME280;1591;51.486;7.146;2022-08-19T02:03:13;72563.06;;;19.53;100.00
3160;BME280;1591;51.486;7.146;2022-08-19T02:05:41;72582.19;;;19.48;100.00
3160;BME280;1591;51.486;7.146;2022-08-19T02:08:10;72560.47;;;19.46;100.00
3160;BME280;1591;51.486;7.146;2022-08-19T02:10:41;72583.06;;;19.44;100.00
3160;BME280;1591;51.486;7.146;2022-08-19T02:13:10;72572.00;;;19.44;100.00
3160;BME280;1591;51.486;7.146;2022-08-19T02:15:37;72557.00;;;19.43;100.00
3160;BME280;1591;51.486;7.146;2022-08-19T02:18:05;72569.66;;;19.42;100.00
3160;BME280;1591;51.486;7.146;2022-08-19T02:20:34;72550.72;;;19.40;100.00
3160;BME280;1591;51.486;7.146;2022-08-19T02:23:02;72550.72;;;19.40;100.00
3160;BME280;1591;51.486;7.146;2022-08-19T02:25:30;72551.75;;;19.39;100.00
3160;BME280;1591;51.486;7.146;2022-08-19T02:27:57;72550.59;;;19.38;100.00
3160;BME280;1591;51.486;7.146;2022-08-19T02:30:24;72551.03;;;19.36;100.00
3160;BME280;1591;51.486;7.146;2022-08-19T02:32:52;72543.16;;;19.34;100.00
3160;BME280;1591;51.486;7.146;2022-08-19T02:35:20;72551.31;;;19.31;100.00
3160;BME280;1591;51.486;7.146;2022-08-19T02:37:48;72541.28;;;19.30;100.00
3160;BME280;1591;51.486;7.146;2022-08-19T02:40:35;72541.56;;;19.25;100.00
3160;BME280;1591;51.486;7.146;2022-08-19T02:43:06;72541.56;;;19.25;100.00
3160;BME280;1591;51.486;7.146;2022-08-19T02:45:35;72533.25;;;19.25;100.00
3160;BME280;1591;51.486;7.146;2022-08-19T02:48:03;72538.81;;;19.25;100.00
3160;BME280;1591;51.486;7.146;2022-08-19T02:50:31;72539.38;;;19.26;100.00
3160;BME280;1591;51.486;7.146;2022-08-19T02:52:58;72542.16;;;19.26;100.00
3160;BME280;1591;51.486;7.146;2022-08-19T02:55:25;72536.47;;;19.23;100.00
3160;BME280;1591;51.486;7.146;2022-08-19T02:57:53;72534.16;;;19.21;100.00
3160;BME280;1591;51.486;7.146;2022-08-19T03:00:20;72540.28;;;19.22;100.00
3160;BME280;1591;51.486;7.146;2022-08-19T03:02:49;72533.59;;;19.21;100.00
3160;BME280;1591;51.486;7.146;2022-08-19T03:05:17;72535.34;;;19.22;100.00
3160;BME280;1591;51.486;7.146;2022-08-19T03:07:44;72528.06;;;19.21;100.00
3160;BME280;1591;51.486;7.146;2022-08-19T03:10:12;72535.91;;;19.23;100.00
3160;BME280;1591;51.486;7.146;2022-08-19T03:12:41;72529.78;;;19.22;100.00
3160;BME280;1591;51.486;7.146;2022-08-19T03:15:11;72533.44;;;19.18;100.00
3160;BME280;1591;51.486;7.146;2022-08-19T03:17:38;72530.53;;;19.16;100.00
3160;BME280;1591;51.486;7.146;2022-08-19T03:20:07;72531.69;;;19.17;100.00
3160;BME280;1591;51.486;7.146;2022-08-19T03:22:34;72537.50;;;19.22;100.00
3160;BME280;1591;51.486;7.146;2022-08-19T03:25:02;72540.41;;;19.34;100.00
3160;BME280;1591;51.486;7.146;2022-08-19T03:27:29;72553.94;;;19.38;100.00
3160;BME280;1591;51.486;7.146;2022-08-19T03:29:56;72554.97;;;19.37;100.00
3160;BME280;1591;51.486;7.146;2022-08-19T03:32:26;72548.84;;;19.36;100.00
3160;BME280;1591;51.486;7.146;2022-08-19T03:34:54;72552.66;;;19.35;100.00
3160;BME280;1591;51.486;7.146;2022-08-19T03:37:21;72544.19;;;19.32;100.00
3160;BME280;1591;51.486;7.146;2022-08-19T03:39:48;72547.97;;;19.31;100.00
3160;BME280;1591;51.486;7.146;2022-08-19T03:42:15;72543.44;;;19.29;100.00
3160;BME280;1591;51.486;7.146;2022-08-19T03:44:44;72538.94;;;19.28;100.00
3160;BME280;1591;51.486;7.146;2022-08-19T03:47:14;72539.97;;;19.26;100.00
3160;BME280;1591;51.486;7.146;2022-08-19T03:49:46;72541.84;;;19.30;100.00
3160;BME280;1591;51.486;7.146;2022-08-19T03:52:13;72570.84;;;19.43;100.00
3160;BME280;1591;51.486;7.146;2022-08-19T03:54:41;72538.09;;;19.22;100.00
3160;BME280;1591;51.486;7.146;2022-08-19T03:57:08;72522.25;;;19.16;100.00
3160;BME280;1591;51.486;7.146;2022-08-19T03:59:37;72519.78;;;19.11;100.00
3160;BME280;1591;51.486;7.146;2022-08-19T04:02:08;72520.81;;;19.10;100.00
3160;BME280;1591;51.486;7.146;2022-08-19T04:04:36;72517.31;;;19.07;100.00
3160;BME280;1591;51.486;7.146;2022-08-19T04:07:06;72516.59;;;19.03;100.00
3160;BME280;1591;51.486;7.146;2022-08-19T04:09:34;72514.28;;;19.01;100.00
3160;BME280;1591;51.486;7.146;2022-08-19T04:12:03;72503.06;;;18.99;100.00
3160;BME280;1591;51.486;7.146;2022-08-19T04:14:33;72503.50;;;18.97;100.00
3160;BME280;1591;51.486;7.146;2022-08-19T04:17:02;72501.19;;;18.95;100.00
3160;BME280;1591;51.486;7.146;2022-08-19T04:19:31;72498.28;;;18.92;100.00
3160;BME280;1591;51.486;7.146;2022-08-19T04:21:58;72495.50;;;18.92;100.00
3160;BME280;1591;51.486;7.146;2022-08-19T04:24:27;72505.56;;;18.94;100.00
3160;BME280;1591;51.486;7.146;2022-08-19T04:26:54;72502.19;;;18.93;100.00
3160;BME280;1591;51.486;7.146;2022-08-19T04:29:24;72501.19;;;18.95;100.00
3160;BME280;1591;51.486;7.146;2022-08-19T04:31:55;72503.50;;;18.97;100.00
3160;BME280;1591;51.486;7.146;2022-08-19T04:34:27;72500.75;;;18.97;100.00
3160;BME280;1591;51.486;7.146;2022-08-19T04:36:57;72513.25;;;19.03;100.00
3160;BME280;1591;51.486;7.146;2022-08-19T04:39:29;72518.63;;;19.10;100.00
3160;BME280;1591;51.486;7.146;2022-08-19T04:42:10;72530.81;;;19.21;100.00
3160;BME280;1591;51.486;7.146;2022-08-19T04:44:55;72547.53;;;19.33;100.00
3160;BME280;1591;51.486;7.146;2022-08-19T04:47:25;72560.78;;;19.42;100.00
3160;BME280;1591;51.486;7.146;2022-08-19T04:49:53;72571.53;;;19.56;100.00
3160;BME280;1591;51.486;7.146;2022-08-19T04:52:20;72586.50;;;19.66;100.00
3160;BME280;1591;51.486;7.146;2022-08-19T04:54:49;72591.84;;;19.73;100.00
3160;BME280;1591;51.486;7.146;2022-08-19T04:57:16;72601.03;;;19.79;100.00
3160;BME280;1591;51.486;7.146;2022-08-19T04:59:44;72617.59;;;19.89;100.00
3160;BME280;1591;51.486;7.146;2022-08-19T05:02:11;72627.19;;;20.02;100.00
3160;BME280;1591;51.486;7.146;2022-08-19T05:04:38;72638.66;;;20.09;100.00
3160;BME280;1591;51.486;7.146;2022-08-19T05:07:06;72640.53;;;20.13;100.00
3160;BME280;1591;51.486;7.146;2022-08-19T05:09:34;72635.59;;;20.14;100.00
3160;BME280;1591;51.486;7.146;2022-08-19T05:12:02;72640.81;;;20.18;100.00
3160;BME280;1591;51.486;7.146;2022-08-19T05:14:30;72649.44;;;20.23;100.00
3160;BME280;1591;51.486;7.146;2022-08-19T05:16:58;72651.03;;;20.22;100.00
3160;BME280;1591;51.486;7.146;2022-08-19T05:19:29;72649.88;;;20.21;100.00
3160;BME280;1591;51.486;7.146;2022-08-19T05:22:16;72644.75;;;20.19;100.00
3160;BME280;1591;51.486;7.146;2022-08-19T05:25:10;72643.16;;;20.20;100.00
3160;BME280;1591;51.486;7.146;2022-08-19T05:27:40;72648.72;;;20.20;100.00
3160;BME280;1591;51.486;7.146;2022-08-19T05:30:11;72655.53;;;20.33;100.00
3160;BME280;1591;51.486;7.146;2022-08-19T05:32:39;72688.53;;;20.59;100.00
3160;BME280;1591;51.486;7.146;2022-08-19T05:35:07;72712.94;;;20.81;100.00
3160;BME280;1591;51.486;7.146;2022-08-19T05:37:35;72735.81;;;21.03;100.00
3160;BME280;1591;51.486;7.146;2022-08-19T05:40:03;72768.44;;;21.21;100.00
3160;BME280;1591;51.486;7.146;2022-08-19T05:42:30;72799.97;;;21.51;100.00
3160;BME280;1591;51.486;7.146;2022-08-19T05:45:00;72822.97;;;21.76;100.00
3160;BME280;1591;51.486;7.146;2022-08-19T05:47:27;72852.53;;;21.99;100.00
3160;BME280;1591;51.486;7.146;2022-08-19T05:49:54;72871.31;;;22.18;100.00
3160;BME280;1591;51.486;7.146;2022-08-19T05:52:21;72888.19;;;22.32;100.00
3160;BME280;1591;51.486;7.146;2022-08-19T05:54:49;72884.81;;;22.32;100.00
3160;BME280;1591;51.486;7.146;2022-08-19T05:57:17;72894.25;;;22.42;100.00
3160;BME280;1591;51.486;7.146;2022-08-19T05:59:44;72908.00;;;22.49;100.00
3160;BME280;1591;51.486;7.146;2022-08-19T06:02:13;72901.69;;;22.46;100.00
3160;BME280;1591;51.486;7.146;2022-08-19T06:04:40;72892.56;;;22.31;100.00
3160;BME280;1591;51.486;7.146;2022-08-19T06:07:08;72887.16;;;22.34;100.00
3160;BME280;1591;51.486;7.146;2022-08-19T06:09:36;72897.03;;;22.42;100.00
3160;BME280;1591;51.486;7.146;2022-08-19T06:12:04;72902.59;;;22.42;100.00
3160;BME280;1591;51.486;7.146;2022-08-19T06:14:36;72900.41;;;22.43;100.00
3160;BME280;1591;51.486;7.146;2022-08-19T06:17:03;72885.28;;;22.30;100.00
3160;BME280;1591;51.486;7.146;2022-08-19T06:19:34;72897.03;;;22.42;100.00
3160;BME280;1591;51.486;7.146;2022-08-19T06:22:02;72901.38;;;22.51;100.00
3160;BME280;1591;51.486;7.146;2022-08-19T06:24:30;72912.19;;;22.55;100.00
3160;BME280;1591;51.486;7.146;2022-08-19T06:27:03;72918.34;;;22.56;100.00
3160;BME280;1591;51.486;7.146;2022-08-19T06:29:31;72931.16;;;22.67;100.00
3160;BME280;1591;51.486;7.146;2022-08-19T06:32:01;72934.22;;;22.72;100.00
3160;BME280;1591;51.486;7.146;2022-08-19T06:34:32;72943.59;;;22.70;100.00
3160;BME280;1591;51.486;7.146;2022-08-19T06:37:01;72918.63;;;22.61;100.00
3160;BME280;1591;51.486;7.146;2022-08-19T06:39:32;72934.09;;;22.69;100.00
3160;BME280;1591;51.486;7.146;2022-08-19T06:42:02;72951.44;;;22.82;100.00
3160;BME280;1591;51.486;7.146;2022-08-19T06:44:34;72954.03;;;22.89;100.00
3160;BME280;1591;51.486;7.146;2022-08-19T06:47:04;72940.03;;;22.77;100.00
3160;BME280;1591;51.486;7.146;2022-08-19T06:49:34;72934.91;;;22.75;100.00
3160;BME280;1591;51.486;7.146;2022-08-19T06:52:03;72931.16;;;22.67;100.00
3160;BME280;1591;51.486;7.146;2022-08-19T06:54:31;72923.28;;;22.65;100.00
3160;BME280;1591;51.486;7.146;2022-08-19T06:57:00;72937.31;;;22.67;100.00
3160;BME280;1591;51.486;7.146;2022-08-19T06:59:30;72925.59;;;22.67;100.00
3160;BME280;1591;51.486;7.146;2022-08-19T07:02:00;72927.69;;;22.64;100.00
3160;BME280;1591;51.486;7.146;2022-08-19T07:04:35;72908.09;;;22.52;100.00
3160;BME280;1591;51.486;7.146;2022-08-19T07:07:07;72909.59;;;22.48;100.00
3160;BME280;1591;51.486;7.146;2022-08-19T07:09:37;72888.44;;;22.37;100.00
3160;BME280;1591;51.486;7.146;2022-08-19T07:12:07;72903.53;;;22.38;100.00
3160;BME280;1591;51.486;7.146;2022-08-19T07:14:37;72890.19;;;22.39;100.00
3160;BME280;1591;51.486;7.146;2022-08-19T07:17:09;72893.22;;;22.44;100.00
3160;BME280;1591;51.486;7.146;2022-08-19T07:19:40;72904.16;;;22.51;100.00
3160;BME280;1591;51.486;7.146;2022-08-19T07:22:10;72920.25;;;22.60;100.00
3160;BME280;1591;51.486;7.146;2022-08-19T07:24:38;72949.81;;;22.83;100.00
3160;BME280;1591;51.486;7.146;2022-08-19T07:27:07;72979.66;;;23.11;100.00
3160;BME280;1591;51.486;7.146;2022-08-19T07:29:36;73003.81;;;23.37;100.00
3160;BME280;1591;51.486;7.146;2022-08-19T07:32:05;73024.34;;;23.57;100.00
3160;BME280;1591;51.486;7.146;2022-08-19T07:34:34;73046.69;;;23.69;100.00
3160;BME280;1591;51.486;7.146;2022-08-19T07:37:06;73050.00;;;23.79;100.00
3160;BME280;1591;51.486;7.146;2022-08-19T07:39:35;73068.84;;;23.88;100.00
3160;BME280;1591;51.486;7.146;2022-08-19T07:42:07;73069.09;;;23.93;100.00
3160;BME280;1591;51.486;7.146;2022-08-19T07:44:36;73097.44;;;24.13;100.00
3160;BME280;1591;51.486;7.146;2022-08-19T07:47:04;73108.63;;;24.25;100.00
3160;BME280;1591;51.486;7.146;2022-08-19T07:49:32;73111.34;;;24.34;100.00
3160;BME280;1591;51.486;7.146;2022-08-19T07:52:03;73131.25;;;24.42;100.00
3160;BME280;1591;51.486;7.146;2022-08-19T07:54:35;73148.03;;;24.54;100.00
3160;BME280;1591;51.486;7.146;2022-08-19T07:57:05;73152.25;;;24.60;100.00
3160;BME280;1591;51.486;7.146;2022-08-19T07:59:33;73149.72;;;24.65;100.00
3160;BME280;1591;51.486;7.146;2022-08-19T08:02:04;73118.69;;;24.36;100.00
3160;BME280;1591;51.486;7.146;2022-08-19T08:04:32;73134.41;;;24.50;100.00
3160;BME280;1591;51.486;7.146;2022-08-19T08:07:17;73154.72;;;24.65;100.00
3160;BME280;1591;51.486;7.146;2022-08-19T08:10:04;73129.50;;;24.40;100.00
3160;BME280;1591;51.486;7.146;2022-08-19T08:12:36;73117.63;;;24.37;100.00
3160;BME280;1591;51.486;7.146;2022-08-19T08:15:13;73147.47;;;24.54;100.00
3160;BME280;1591;51.486;7.146;2022-08-19T08:17:43;73148.88;;;24.60;100.00
3160;BME280;1591;51.486;7.146;2022-08-19T08:20:13;73159.66;;;24.74;100.00
3160;BME280;1591;51.486;7.146;2022-08-19T08:22:44;73179.47;;;24.91;100.00
3160;BME280;1591;51.486;7.146;2022-08-19T08:25:31;73208.28;;;25.08;100.00
3160;BME280;1591;51.486;7.146;2022-08-19T08:27:59;73209.44;;;25.09;100.00
3160;BME280;1591;51.486;7.146;2022-08-19T08:30:30;73188.78;;;24.99;100.00
3160;BME280;1591;51.486;7.146;2022-08-19T08:32:59;73236.66;;;25.40;100.00
3160;BME280;1591;51.486;7.146;2022-08-19T08:35:26;73265.72;;;25.63;100.00
3160;BME280;1591;51.486;7.146;2022-08-19T08:37:54;73258.84;;;25.59;100.00
3160;BME280;1591;51.486;7.146;2022-08-19T08:40:30;73257.78;;;25.61;100.00
3160;BME280;1591;51.486;7.146;2022-08-19T08:43:06;73257.66;;;25.58;100.00
3160;BME280;1591;51.486;7.146;2022-08-19T08:45:43;73288.50;;;25.82;100.00
3160;BME280;1591;51.486;7.146;2022-08-19T08:48:20;73310.09;;;26.01;100.00
3160;BME280;1591;51.486;7.146;2022-08-19T08:50:51;73279.13;;;25.74;100.00
3160;BME280;1591;51.486;7.146;2022-08-19T08:53:21;73303.09;;;25.95;100.00
3160;BME280;1591;51.486;7.146;2022-08-19T08:55:50;73312.66;;;26.08;100.00
3160;BME280;1591;51.486;7.146;2022-08-19T08:58:26;73338.72;;;26.26;100.00
3160;BME280;1591;51.486;7.146;2022-08-19T09:00:55;73358.56;;;26.43;100.00
3160;BME280;1591;51.486;7.146;2022-08-19T09:03:27;73362.19;;;26.48;100.00
3160;BME280;1591;51.486;7.146;2022-08-19T09:06:01;73371.88;;;26.52;100.00
3160;BME280;1591;51.486;7.146;2022-08-19T09:08:40;73391.84;;;26.71;100.00
3160;BME280;1591;51.486;7.146;2022-08-19T09:11:18;73379.47;;;26.58;100.00
3160;BME280;1591;51.486;7.146;2022-08-19T09:14:00;73370.72;;;26.51;100.00
3160;BME280;1591;51.486;7.146;2022-08-19T09:16:30;73368.84;;;26.47;100.00
3160;BME280;1591;51.486;7.146;2022-08-19T09:19:05;73367.19;;;26.48;100.00
3160;BME280;1591;51.486;7.146;2022-08-19T09:21:33;73353.78;;;26.36;100.00
3160;BME280;1591;51.486;7.146;2022-08-19T09:24:00;73366.16;;;26.49;100.00
3160;BME280;1591;51.486;7.146;2022-08-19T09:26:29;73388.47;;;26.71;100.00
3160;BME280;1591;51.486;7.146;2022-08-19T09:28:58;73427.97;;;27.00;100.00
3160;BME280;1591;51.486;7.146;2022-08-19T09:31:28;73451.00;;;27.25;100.00
3160;BME280;1591;51.486;7.146;2022-08-19T09:33:56;73468.66;;;27.42;100.00
3160;BME280;1591;51.486;7.146;2022-08-19T09:36:26;73473.91;;;27.47;100.00
3160;BME280;1591;51.486;7.146;2022-08-19T09:38:55;73477.19;;;27.45;100.00
3160;BME280;1591;51.486;7.146;2022-08-19T09:41:25;73462.91;;;27.28;100.00
3160;BME280;1591;51.486;7.146;2022-08-19T09:43:56;73410.56;;;26.88;100.00
3160;BME280;1591;51.486;7.146;2022-08-19T09:46:27;73386.00;;;26.66;100.00
3160;BME280;1591;51.486;7.146;2022-08-19T09:48:59;73363.25;;;26.47;100.00
3160;BME280;1591;51.486;7.146;2022-08-19T09:51:28;73369.66;;;26.52;100.00
3160;BME280;1591;51.486;7.146;2022-08-19T09:54:00;73360.31;;;26.44;100.00
3160;BME280;1591;51.486;7.146;2022-08-19T09:56:29;73351.91;;;26.32;100.00
3160;BME280;1591;51.486;7.146;2022-08-19T09:59:00;73349.44;;;26.40;100.00
3160;BME280;1591;51.486;7.146;2022-08-19T10:01:30;73368.50;;;26.51;100.00
3160;BME280;1591;51.486;7.146;2022-08-19T10:04:00;73389.19;;;26.74;100.00
3160;BME280;1591;51.486;7.146;2022-08-19T10:06:29;73427.97;;;27.00;100.00
3160;BME280;1591;51.486;7.146;2022-08-19T10:08:59;73438.59;;;27.12;100.00
3160;BME280;1591;51.486;7.146;2022-08-19T10:11:26;73415.34;;;26.94;100.00
3160;BME280;1591;51.486;7.146;2022-08-19T10:13:54;73394.31;;;26.76;100.00
3160;BME280;1591;51.486;7.146;2022-08-19T10:16:23;73374.78;;;26.54;100.00
3160;BME280;1591;51.486;7.146;2022-08-19T10:18:52;73362.53;;;26.44;100.00
3160;BME280;1591;51.486;7.146;2022-08-19T10:21:22;73342.78;;;26.29;100.00
3160;BME280;1591;51.486;7.146;2022-08-19T10:23:54;73347.00;;;26.35;100.00
3160;BME280;1591;51.486;7.146;2022-08-19T10:26:24;73360.56;;;26.49;100.00
3160;BME280;1591;51.486;7.146;2022-08-19T10:28:53;73362.91;;;26.51;100.00
3160;BME280;1591;51.486;7.146;2022-08-19T10:31:25;73390.81;;;26.73;100.00
3160;BME280;1591;51.486;7.146;2022-08-19T10:33:53;73438.25;;;27.16;100.00
3160;BME280;1591;51.486;7.146;2022-08-19T10:36:28;73429.16;;;27.37;100.00
3160;BME280;1591;51.486;7.146;2022-08-19T10:38:59;73480.22;;;27.50;100.00
3160;BME280;1591;51.486;7.146;2022-08-19T10:41:30;73474.38;;;27.45;100.00
3160;BME280;1591;51.486;7.146;2022-08-19T10:44:00;73452.88;;;27.29;100.00
3160;BME280;1591;51.486;7.146;2022-08-19T10:46:29;73453.09;;;27.22;100.00
3160;BME280;1591;51.486;7.146;2022-08-19T10:48:58;73447.34;;;27.19;100.00
3160;BME280;1591;51.486;7.146;2022-08-19T10:51:25;73436.28;;;27.10;100.00
3160;BME280;1591;51.486;7.146;2022-08-19T10:54:10;73434.41;;;27.06;100.00
3160;BME280;1591;51.486;7.146;2022-08-19T10:56:37;73410.09;;;26.90;100.00
3160;BME280;1591;51.486;7.146;2022-08-19T10:59:23;73412.41;;;26.80;100.00
3160;BME280;1591;51.486;7.146;2022-08-19T11:01:51;73400.53;;;26.77;100.00
3160;BME280;1591;51.486;7.146;2022-08-19T11:04:19;73384.97;;;26.68;100.00
3160;BME280;1591;51.486;7.146;2022-08-19T11:06:48;73382.63;;;26.66;100.00
3160;BME280;1591;51.486;7.146;2022-08-19T11:09:17;73372.00;;;26.54;100.00
3160;BME280;1591;51.486;7.146;2022-08-19T11:11:44;73373.16;;;26.55;100.00
3160;BME280;1591;51.486;7.146;2022-08-19T11:14:17;73377.84;;;26.59;100.00
3160;BME280;1591;51.486;7.146;2022-08-19T11:16:46;73382.03;;;26.65;100.00
3160;BME280;1591;51.486;7.146;2022-08-19T11:19:16;73393.28;;;26.77;100.00
3160;BME280;1591;51.486;7.146;2022-08-19T11:21:47;73398.28;;;26.77;100.00
3160;BME280;1591;51.486;7.146;2022-08-19T11:24:19;73358.50;;;26.77;100.00
3160;BME280;1591;51.486;7.146;2022-08-19T11:26:49;73408.94;;;26.89;100.00
3160;BME280;1591;51.486;7.146;2022-08-19T11:29:20;73398.75;;;27.11;100.00
3160;BME280;1591;51.486;7.146;2022-08-19T11:31:49;73456.94;;;27.32;100.00
3160;BME280;1591;51.486;7.146;2022-08-19T11:34:20;73422.13;;;27.31;100.00
3160;BME280;1591;51.486;7.146;2022-08-19T11:36:50;73442.94;;;27.20;100.00
3160;BME280;1591;51.486;7.146;2022-08-19T11:39:20;73449.22;;;27.23;100.00
3160;BME280;1591;51.486;7.146;2022-08-19T11:41:47;73452.88;;;27.29;100.00
3160;BME280;1591;51.486;7.146;2022-08-19T11:44:15;73463.97;;;27.38;100.00
3160;BME280;1591;51.486;7.146;2022-08-19T11:46:43;73487.81;;;27.57;100.00
3160;BME280;1591;51.486;7.146;2022-08-19T11:49:13;73508.16;;;27.72;100.00
3160;BME280;1591;51.486;7.146;2022-08-19T11:51:42;73508.16;;;27.72;100.00
3160;BME280;1591;51.486;7.146;2022-08-19T11:54:11;73534.03;;;27.96;100.00
3160;BME280;1591;51.486;7.146;2022-08-19T11:56:39;73526.16;;;28.21;100.00
3160;BME280;1591;51.486;7.146;2022-08-19T11:59:07;73554.47;;;28.14;100.00
3160;BME280;1591;51.486;7.146;2022-08-19T12:01:34;73545.81;;;28.09;100.00
3160;BME280;1591;51.486;7.146;2022-08-19T12:04:01;73565.13;;;28.25;100.00
3160;BME280;1591;51.486;7.146;2022-08-19T12:06:32;73593.63;;;28.48;100.00
3160;BME280;1591;51.486;7.146;2022-08-19T12:09:06;73607.69;;;28.60;99.05
3160;BME280;1591;51.486;7.146;2022-08-19T12:11:35;73629.69;;;28.74;99.62
3160;BME280;1591;51.486;7.146;2022-08-19T12:14:03;73645.13;;;28.92;97.45
3160;BME280;1591;51.486;7.146;2022-08-19T12:16:31;73647.34;;;28.91;94.71
3160;BME280;1591;51.486;7.146;2022-08-19T12:18:59;73577.28;;;28.34;91.75
3160;BME280;1591;51.486;7.146;2022-08-19T12:21:31;73594.22;;;28.48;94.48
3160;BME280;1591;51.486;7.146;2022-08-19T12:24:02;73602.31;;;28.53;92.54
3160;BME280;1591;51.486;7.146;2022-08-19T12:26:31;73596.69;;;28.53;91.73
3160;BME280;1591;51.486;7.146;2022-08-19T12:28:59;73634.59;;;28.83;93.73
3160;BME280;1591;51.486;7.146;2022-08-19T12:31:26;73663.84;;;29.08;87.25
3160;BME280;1591;51.486;7.146;2022-08-19T12:33:55;73649.50;;;29.27;88.56
3160;BME280;1591;51.486;7.146;2022-08-19T12:36:22;73689.50;;;29.28;88.67
3160;BME280;1591;51.486;7.146;2022-08-19T12:38:50;73666.28;;;29.13;86.32
3160;BME280;1591;51.486;7.146;2022-08-19T12:41:22;73669.25;;;29.15;88.17
3160;BME280;1591;51.486;7.146;2022-08-19T12:43:50;73679.66;;;29.22;90.07
3160;BME280;1591;51.486;7.146;2022-08-19T12:46:19;73690.28;;;29.33;87.11
3160;BME280;1591;51.486;7.146;2022-08-19T12:48:47;73688.44;;;29.29;85.28
3160;BME280;1591;51.486;7.146;2022-08-19T12:51:17;73687.94;;;29.31;85.54
3160;BME280;1591;51.486;7.146;2022-08-19T12:53:45;73653.03;;;29.30;86.43
3160;BME280;1591;51.486;7.146;2022-08-19T12:56:14;73671.56;;;29.17;88.63
3160;BME280;1591;51.486;7.146;2022-08-19T12:58:44;73669.09;;;29.13;87.14
3160;BME280;1591;51.486;7.146;2022-08-19T13:01:15;73635.47;;;29.15;88.57
3160;BME280;1591;51.486;7.146;2022-08-19T13:03:46;73672.16;;;29.18;84.96
3160;BME280;1591;51.486;7.146;2022-08-19T13:06:13;73671.91;;;29.13;85.34
3160;BME280;1591;51.486;7.146;2022-08-19T13:08:41;73641.91;;;29.21;83.61
3160;BME280;1591;51.486;7.146;2022-08-19T13:11:12;73675.66;;;29.21;84.13
3160;BME280;1591;51.486;7.146;2022-08-19T13:13:45;73654.47;;;29.00;87.25
3160;BME280;1591;51.486;7.146;2022-08-19T13:16:14;73598.03;;;28.83;87.93
3160;BME280;1591;51.486;7.146;2022-08-19T13:18:43;73622.31;;;28.72;87.37
3160;BME280;1591;51.486;7.146;2022-08-19T13:21:13;73570.56;;;28.59;85.47
3160;BME280;1591;51.486;7.146;2022-08-19T13:23:41;73601.13;;;28.52;85.89
3160;BME280;1591;51.486;7.146;2022-08-19T13:26:10;73576.81;;;28.36;83.09